sensor_id;sensor_type;location;lat;lon;timestamp;pressure;altitude;pressure_sealevel;temperature;humidity
62103;BME280;48077;48.104;11.702;2022-12-29T00:01:21;95339.31;;;1.08;90.12
62103;BME280;48077;48.104;11.702;2022-12-29T00:03:47;95347.34;;;1.15;90.15
62103;BME280;48077;48.104;11.702;2022-12-29T00:06:11;95339.78;;;1.12;90.18
62103;BME280;48077;48.104;11.702;2022-12-29T00:08:34;95336.38;;;1.11;90.17
62103;BME280;48077;48.104;11.702;2022-12-29T00:11:11;95339.31;;;1.08;90.29
62103;BME280;48077;48.104;11.702;2022-12-29T00:13:35;95327.91;;;1.01;90.87
62103;BME280;48077;48.104;11.702;2022-12-29T00:16:17;95332.47;;;1.07;90.74
62103;BME280;48077;48.104;11.702;2022-12-29T00:18:40;95319.22;;;1.00;90.39
62103;BME280;48077;48.104;11.702;2022-12-29T00:21:03;95328.53;;;1.03;90.13
62103;BME280;48077;48.104;11.702;2022-12-29T00:23:46;95334.53;;;1.12;89.89
62103;BME280;48077;48.104;11.702;2022-12-29T00:26:27;95332.56;;;1.14;89.59
62103;BME280;48077;48.104;11.702;2022-12-29T00:29:09;95326.31;;;1.15;88.89
62103;BME280;48077;48.104;11.702;2022-12-29T00:31:53;95320.53;;;1.19;88.52
62103;BME280;48077;48.104;11.702;2022-12-29T00:34:35;95324.25;;;1.25;87.78
62103;BME280;48077;48.104;11.702;2022-12-29T00:37:17;95321.63;;;1.25;87.71
62103;BME280;48077;48.104;11.702;2022-12-29T00:40:00;95294.81;;;1.15;87.39
62103;BME280;48077;48.104;11.702;2022-12-29T00:42:45;95304.75;;;1.19;87.25
62103;BME280;48077;48.104;11.702;2022-12-29T00:45:27;95312.41;;;1.29;86.79
62103;BME280;48077;48.104;11.702;2022-12-29T00:47:50;95312.75;;;1.26;87.02
62103;BME280;48077;48.104;11.702;2022-12-29T00:50:14;95299.84;;;1.16;86.97
62103;BME280;48077;48.104;11.702;2022-12-29T00:52:37;95318.81;;;1.27;87.19
62103;BME280;48077;48.104;11.702;2022-12-29T00:55:03;95308.56;;;1.17;87.33
62103;BME280;48077;48.104;11.702;2022-12-29T00:57:26;95315.09;;;1.21;86.62
62103;BME280;48077;48.104;11.702;2022-12-29T00:59:49;95319.19;;;1.24;86.81
62103;BME280;48077;48.104;11.702;2022-12-29T01:02:13;95322.34;;;1.19;86.77
62103;BME280;48077;48.104;11.702;2022-12-29T01:04:36;95316.72;;;1.22;86.47
62103;BME280;48077;48.104;11.702;2022-12-29T01:07:00;95316.63;;;1.15;86.61
62103;BME280;48077;48.104;11.702;2022-12-29T01:09:24;95316.63;;;1.15;86.98
62103;BME280;48077;48.104;11.702;2022-12-29T01:12:07;95314.06;;;1.07;87.44
62103;BME280;48077;48.104;11.702;2022-12-29T01:14:31;95311.13;;;1.02;87.82
62103;BME280;48077;48.104;11.702;2022-12-29T01:16:55;95319.31;;;1.07;87.48
62103;BME280;48077;48.104;11.702;2022-12-29T01:19:19;95321.47;;;1.04;87.79
62103;BME280;48077;48.104;11.702;2022-12-29T01:21:43;95324.63;;;0.99;87.84
62103;BME280;48077;48.104;11.702;2022-12-29T01:24:07;95317.47;;;0.93;87.74
62103;BME280;48077;48.104;11.702;2022-12-29T01:26:33;95320.47;;;0.90;88.06
62103;BME280;48077;48.104;11.702;2022-12-29T01:28:56;95326.00;;;0.95;88.09
62103;BME280;48077;48.104;11.702;2022-12-29T01:31:19;95319.63;;;0.89;88.38
62103;BME280;48077;48.104;11.702;2022-12-29T01:33:43;95326.69;;;0.89;88.15
62103;BME280;48077;48.104;11.702;2022-12-29T01:36:11;95327.34;;;0.91;88.15
62103;BME280;48077;48.104;11.702;2022-12-29T01:38:37;95330.44;;;0.94;87.60
62103;BME280;48077;48.104;11.702;2022-12-29T01:41:01;95330.91;;;0.98;87.56
62103;BME280;48077;48.104;11.702;2022-12-29T01:43:47;95334.97;;;1.00;87.23
62103;BME280;48077;48.104;11.702;2022-12-29T01:46:21;95327.53;;;1.04;86.88
62103;BME280;48077;48.104;11.702;2022-12-29T01:48:49;95328.19;;;1.06;86.23
62103;BME280;48077;48.104;11.702;2022-12-29T01:51:15;95324.41;;;1.09;86.17
62103;BME280;48077;48.104;11.702;2022-12-29T01:53:39;95323.41;;;1.10;85.90
62103;BME280;48077;48.104;11.702;2022-12-29T01:56:06;95315.25;;;1.05;85.85
62103;BME280;48077;48.104;11.702;2022-12-29T01:58:32;95314.59;;;1.03;86.06
62103;BME280;48077;48.104;11.702;2022-12-29T02:00:56;95321.41;;;1.12;85.30
62103;BME280;48077;48.104;11.702;2022-12-29T02:03:20;95319.09;;;1.17;85.21
62103;BME280;48077;48.104;11.702;2022-12-29T02:05:56;95318.25;;;1.16;85.44
62103;BME280;48077;48.104;11.702;2022-12-29T02:08:24;95316.78;;;1.14;85.83
62103;BME280;48077;48.104;11.702;2022-12-29T02:10:49;95305.72;;;1.04;86.12
62103;BME280;48077;48.104;11.702;2022-12-29T02:13:15;95313.25;;;1.07;86.49
62103;BME280;48077;48.104;11.702;2022-12-29T02:18:28;95321.94;;;1.07;85.97
62103;BME280;48077;48.104;11.702;2022-12-29T02:24:24;95312.69;;;0.96;86.99
62103;BME280;48077;48.104;11.702;2022-12-29T02:27:23;95320.91;;;0.93;87.12
62103;BME280;48077;48.104;11.702;2022-12-29T02:30:03;95317.63;;;0.91;87.70
62103;BME280;48077;48.104;11.702;2022-12-29T02:33:34;95323.09;;;0.90;87.81
62103;BME280;48077;48.104;11.702;2022-12-29T02:35:35;95321.28;;;0.90;87.63
62103;BME280;48077;48.104;11.702;2022-12-29T02:43:19;95317.00;;;0.89;87.52
62103;BME280;48077;48.104;11.702;2022-12-29T02:45:53;95321.09;;;0.92;87.42
62103;BME280;48077;48.104;11.702;2022-12-29T02:48:35;95312.84;;;0.95;87.37
62103;BME280;48077;48.104;11.702;2022-12-29T02:51:03;95322.56;;;0.94;87.48
62103;BME280;48077;48.104;11.702;2022-12-29T02:53:29;95319.94;;;0.94;87.85
62103;BME280;48077;48.104;11.702;2022-12-29T02:56:11;95303.38;;;0.94;87.96
62103;BME280;48077;48.104;11.702;2022-12-29T02:58:34;95308.94;;;0.91;88.06
62103;BME280;48077;48.104;11.702;2022-12-29T03:01:14;95313.88;;;0.94;87.53
62103;BME280;48077;48.104;11.702;2022-12-29T03:06:46;95315.84;;;0.92;87.74
62103;BME280;48077;48.104;11.702;2022-12-29T03:09:48;95311.56;;;0.91;87.40
62103;BME280;48077;48.104;11.702;2022-12-29T03:12:30;95302.72;;;0.92;87.49
62103;BME280;48077;48.104;11.702;2022-12-29T03:15:22;95291.56;;;0.90;87.26
62103;BME280;48077;48.104;11.702;2022-12-29T03:18:20;95296.94;;;0.96;86.62
62103;BME280;48077;48.104;11.702;2022-12-29T03:20:53;95296.56;;;0.99;86.70
62103;BME280;48077;48.104;11.702;2022-12-29T03:23:20;95292.13;;;1.00;85.94
62103;BME280;48077;48.104;11.702;2022-12-29T03:25:48;95273.94;;;0.98;85.50
62103;BME280;48077;48.104;11.702;2022-12-29T03:28:18;95281.38;;;1.10;85.89
62103;BME280;48077;48.104;11.702;2022-12-29T03:30:43;95266.69;;;1.00;86.36
62103;BME280;48077;48.104;11.702;2022-12-29T03:33:10;95272.03;;;1.07;86.24
62103;BME280;48077;48.104;11.702;2022-12-29T03:35:37;95268.22;;;1.10;86.16
62103;BME280;48077;48.104;11.702;2022-12-29T03:40:27;95260.38;;;1.25;84.34
62103;BME280;48077;48.104;11.702;2022-12-29T03:42:52;95259.22;;;1.27;83.60
62103;BME280;48077;48.104;11.702;2022-12-29T03:45:16;95252.59;;;1.31;83.29
62103;BME280;48077;48.104;11.702;2022-12-29T03:47:39;95271.81;;;1.47;83.02
62103;BME280;48077;48.104;11.702;2022-12-29T03:50:03;95255.47;;;1.51;81.91
62103;BME280;48077;48.104;11.702;2022-12-29T03:52:26;95270.44;;;1.66;80.62
62103;BME280;48077;48.104;11.702;2022-12-29T03:54:49;95265.44;;;1.71;80.77
62103;BME280;48077;48.104;11.702;2022-12-29T03:57:13;95262.44;;;1.74;80.26
62103;BME280;48077;48.104;11.702;2022-12-29T03:59:36;95273.22;;;1.79;80.50
62103;BME280;48077;48.104;11.702;2022-12-29T04:02:02;95263.06;;;1.76;80.15
62103;BME280;48077;48.104;11.702;2022-12-29T04:04:25;95261.72;;;1.80;81.23
62103;BME280;48077;48.104;11.702;2022-12-29T04:06:49;95263.34;;;1.81;81.46
62103;BME280;48077;48.104;11.702;2022-12-29T04:09:12;95248.50;;;1.73;81.51
62103;BME280;48077;48.104;11.702;2022-12-29T04:11:36;95274.75;;;1.88;80.85
62103;BME280;48077;48.104;11.702;2022-12-29T04:13:59;95273.75;;;1.89;81.03
62103;BME280;48077;48.104;11.702;2022-12-29T04:16:22;95268.06;;;1.86;81.64
62103;BME280;48077;48.104;11.702;2022-12-29T04:18:46;95268.31;;;1.91;81.52
62103;BME280;48077;48.104;11.702;2022-12-29T04:21:09;95266.31;;;1.93;81.08
62103;BME280;48077;48.104;11.702;2022-12-29T04:23:35;95261.50;;;1.96;81.15
62103;BME280;48077;48.104;11.702;2022-12-29T04:25:59;95263.94;;;1.98;81.48
62103;BME280;48077;48.104;11.702;2022-12-29T04:28:23;95262.94;;;1.99;80.87
62103;BME280;48077;48.104;11.702;2022-12-29T04:30:46;95268.09;;;2.07;80.30
62103;BME280;48077;48.104;11.702;2022-12-29T04:33:10;95251.06;;;2.03;80.77
62103;BME280;48077;48.104;11.702;2022-12-29T04:35:33;95257.75;;;2.06;80.34
62103;BME280;48077;48.104;11.702;2022-12-29T04:37:56;95261.72;;;2.16;79.88
62103;BME280;48077;48.104;11.702;2022-12-29T04:40:20;95261.72;;;2.16;79.85
62103;BME280;48077;48.104;11.702;2022-12-29T04:42:43;95258.28;;;2.16;79.72
62103;BME280;48077;48.104;11.702;2022-12-29T04:45:07;95237.63;;;2.13;79.18
62103;BME280;48077;48.104;11.702;2022-12-29T04:47:30;95258.22;;;2.31;78.95
62103;BME280;48077;48.104;11.702;2022-12-29T04:49:54;95256.41;;;2.31;79.32
62103;BME280;48077;48.104;11.702;2022-12-29T04:52:17;95256.50;;;2.38;78.77
62103;BME280;48077;48.104;11.702;2022-12-29T04:54:41;95244.94;;;2.39;78.15
62103;BME280;48077;48.104;11.702;2022-12-29T04:57:04;95246.81;;;2.45;77.46
62103;BME280;48077;48.104;11.702;2022-12-29T04:59:27;95249.34;;;2.53;77.61
62103;BME280;48077;48.104;11.702;2022-12-29T05:01:51;95240.81;;;2.51;77.28
62103;BME280;48077;48.104;11.702;2022-12-29T05:04:14;95244.69;;;2.55;77.83
62103;BME280;48077;48.104;11.702;2022-12-29T05:06:37;95250.41;;;2.59;77.74
62103;BME280;48077;48.104;11.702;2022-12-29T05:09:01;95237.59;;;2.56;77.46
62103;BME280;48077;48.104;11.702;2022-12-29T05:11:24;95243.72;;;2.56;76.51
62103;BME280;48077;48.104;11.702;2022-12-29T05:13:47;95254.09;;;2.64;76.78
62103;BME280;48077;48.104;11.702;2022-12-29T05:16:11;95247.44;;;2.69;76.24
62103;BME280;48077;48.104;11.702;2022-12-29T05:18:34;95254.53;;;2.68;76.52
62103;BME280;48077;48.104;11.702;2022-12-29T05:20:57;95241.75;;;2.65;76.25
62103;BME280;48077;48.104;11.702;2022-12-29T05:23:21;95247.25;;;2.70;75.75
62103;BME280;48077;48.104;11.702;2022-12-29T05:25:44;95251.13;;;2.74;76.24
62103;BME280;48077;48.104;11.702;2022-12-29T05:28:08;95253.03;;;2.80;76.20
62103;BME280;48077;48.104;11.702;2022-12-29T05:30:32;95250.78;;;2.77;76.09
62103;BME280;48077;48.104;11.702;2022-12-29T05:32:55;95260.28;;;2.78;75.68
62103;BME280;48077;48.104;11.702;2022-12-29T05:35:18;95255.06;;;2.85;75.80
62103;BME280;48077;48.104;11.702;2022-12-29T05:37:42;95246.31;;;2.78;75.38
62103;BME280;48077;48.104;11.702;2022-12-29T05:40:06;95253.31;;;2.92;74.75
62103;BME280;48077;48.104;11.702;2022-12-29T05:42:29;95254.09;;;2.86;75.83
62103;BME280;48077;48.104;11.702;2022-12-29T05:44:52;95265.06;;;2.90;75.66
62103;BME280;48077;48.104;11.702;2022-12-29T05:47:16;95254.72;;;2.88;76.09
62103;BME280;48077;48.104;11.702;2022-12-29T05:49:40;95255.91;;;2.86;76.84
62103;BME280;48077;48.104;11.702;2022-12-29T05:52:03;95256.28;;;2.82;76.57
62103;BME280;48077;48.104;11.702;2022-12-29T05:54:27;95250.81;;;2.84;75.78
62103;BME280;48077;48.104;11.702;2022-12-29T05:56:50;95257.34;;;2.88;75.97
62103;BME280;48077;48.104;11.702;2022-12-29T05:59:13;95249.00;;;2.84;76.63
62103;BME280;48077;48.104;11.702;2022-12-29T06:01:37;95256.94;;;2.91;76.90
62103;BME280;48077;48.104;11.702;2022-12-29T06:04:00;95252.31;;;2.93;75.69
62103;BME280;48077;48.104;11.702;2022-12-29T06:06:24;95242.16;;;2.90;76.25
62103;BME280;48077;48.104;11.702;2022-12-29T06:08:47;95246.84;;;2.95;75.69
62103;BME280;48077;48.104;11.702;2022-12-29T06:11:10;95252.34;;;3.00;75.39
62103;BME280;48077;48.104;11.702;2022-12-29T06:13:36;95242.84;;;2.99;75.79
62103;BME280;48077;48.104;11.702;2022-12-29T06:16:00;95241.59;;;2.95;75.97
62103;BME280;48077;48.104;11.702;2022-12-29T06:18:23;95263.09;;;2.98;76.91
62103;BME280;48077;48.104;11.702;2022-12-29T06:20:47;95249.50;;;2.95;76.83
62103;BME280;48077;48.104;11.702;2022-12-29T06:23:10;95245.41;;;2.92;76.95
62103;BME280;48077;48.104;11.702;2022-12-29T06:25:35;95246.22;;;2.93;76.67
62103;BME280;48077;48.104;11.702;2022-12-29T06:27:59;95236.84;;;2.83;76.77
62103;BME280;48077;48.104;11.702;2022-12-29T06:30:23;95243.78;;;2.91;77.55
62103;BME280;48077;48.104;11.702;2022-12-29T06:32:46;95257.56;;;2.93;76.83
62103;BME280;48077;48.104;11.702;2022-12-29T06:35:09;95249.50;;;2.95;76.39
62103;BME280;48077;48.104;11.702;2022-12-29T06:37:33;95246.47;;;2.98;75.55
62103;BME280;48077;48.104;11.702;2022-12-29T06:39:56;95243.00;;;2.97;75.05
62103;BME280;48077;48.104;11.702;2022-12-29T06:42:19;95247.34;;;3.05;75.76
62103;BME280;48077;48.104;11.702;2022-12-29T06:44:43;95246.47;;;2.98;75.12
62103;BME280;48077;48.104;11.702;2022-12-29T06:47:06;95251.81;;;3.04;75.74
62103;BME280;48077;48.104;11.702;2022-12-29T06:49:29;95258.47;;;3.00;75.79
62103;BME280;48077;48.104;11.702;2022-12-29T06:51:53;95259.25;;;3.01;75.27
62103;BME280;48077;48.104;11.702;2022-12-29T06:54:16;95257.44;;;3.01;75.24
62103;BME280;48077;48.104;11.702;2022-12-29T06:56:40;95259.31;;;3.08;75.72
62103;BME280;48077;48.104;11.702;2022-12-29T06:59:03;95248.31;;;3.04;75.25
62103;BME280;48077;48.104;11.702;2022-12-29T07:01:27;95253.59;;;3.04;75.26
62103;BME280;48077;48.104;11.702;2022-12-29T07:03:50;95258.88;;;3.04;75.16
62103;BME280;48077;48.104;11.702;2022-12-29T07:06:13;95268.66;;;3.10;75.04
62103;BME280;48077;48.104;11.702;2022-12-29T07:08:37;95277.75;;;3.08;75.35
62103;BME280;48077;48.104;11.702;2022-12-29T07:11:01;95280.38;;;3.08;76.22
62103;BME280;48077;48.104;11.702;2022-12-29T07:13:24;95283.22;;;3.06;76.57
62103;BME280;48077;48.104;11.702;2022-12-29T07:15:48;95266.38;;;3.00;76.07
62103;BME280;48077;48.104;11.702;2022-12-29T07:18:11;95265.78;;;3.05;76.10
62103;BME280;48077;48.104;11.702;2022-12-29T07:20:34;95269.22;;;3.06;75.11
62103;BME280;48077;48.104;11.702;2022-12-29T07:22:58;95281.50;;;3.20;74.17
62103;BME280;48077;48.104;11.702;2022-12-29T07:25:22;95293.28;;;3.24;74.31
62103;BME280;48077;48.104;11.702;2022-12-29T07:27:45;95279.66;;;3.20;73.81
62103;BME280;48077;48.104;11.702;2022-12-29T07:30:09;95278.88;;;3.20;74.31
62103;BME280;48077;48.104;11.702;2022-12-29T07:32:33;95296.56;;;3.26;74.74
62103;BME280;48077;48.104;11.702;2022-12-29T07:34:57;95296.72;;;3.24;74.51
62103;BME280;48077;48.104;11.702;2022-12-29T07:37:20;95306.66;;;3.22;75.25
62103;BME280;48077;48.104;11.702;2022-12-29T07:39:43;95309.09;;;3.24;75.12
62103;BME280;48077;48.104;11.702;2022-12-29T07:42:07;95309.53;;;3.28;74.91
62103;BME280;48077;48.104;11.702;2022-12-29T07:44:30;95311.97;;;3.29;74.74
62103;BME280;48077;48.104;11.702;2022-12-29T07:46:53;95307.53;;;3.30;74.98
62103;BME280;48077;48.104;11.702;2022-12-29T07:49:17;95306.09;;;3.27;74.64
62103;BME280;48077;48.104;11.702;2022-12-29T07:51:41;95312.59;;;3.31;75.03
62103;BME280;48077;48.104;11.702;2022-12-29T07:54:04;95317.63;;;3.26;75.05
62103;BME280;48077;48.104;11.702;2022-12-29T07:56:27;95323.53;;;3.28;75.12
62103;BME280;48077;48.104;11.702;2022-12-29T07:58:51;95314.38;;;3.24;75.24
62103;BME280;48077;48.104;11.702;2022-12-29T08:01:14;95301.91;;;3.11;75.83
62103;BME280;48077;48.104;11.702;2022-12-29T08:03:37;95305.63;;;3.17;75.51
62103;BME280;48077;48.104;11.702;2022-12-29T08:06:02;95312.94;;;3.21;74.55
62103;BME280;48077;48.104;11.702;2022-12-29T08:08:26;95294.63;;;3.13;74.15
62103;BME280;48077;48.104;11.702;2022-12-29T08:10:49;95318.47;;;3.33;73.11
62103;BME280;48077;48.104;11.702;2022-12-29T08:13:12;95319.72;;;3.37;73.33
62103;BME280;48077;48.104;11.702;2022-12-29T08:15:37;95311.81;;;3.37;72.75
62103;BME280;48077;48.104;11.702;2022-12-29T08:18:00;95312.69;;;3.44;72.66
62103;BME280;48077;48.104;11.702;2022-12-29T08:20:24;95312.13;;;3.49;72.10
62103;BME280;48077;48.104;11.702;2022-12-29T08:22:47;95315.03;;;3.61;71.78
62103;BME280;48077;48.104;11.702;2022-12-29T08:25:10;95327.69;;;3.72;71.18
62103;BME280;48077;48.104;11.702;2022-12-29T08:27:34;95330.34;;;3.79;71.15
62103;BME280;48077;48.104;11.702;2022-12-29T08:29:57;95315.75;;;3.83;71.23
62103;BME280;48077;48.104;11.702;2022-12-29T08:32:20;95318.47;;;3.90;69.96
62103;BME280;48077;48.104;11.702;2022-12-29T08:34:44;95320.88;;;3.91;70.59
62103;BME280;48077;48.104;11.702;2022-12-29T08:37:07;95327.19;;;3.90;71.30
62103;BME280;48077;48.104;11.702;2022-12-29T08:39:31;95309.88;;;3.81;71.96
62103;BME280;48077;48.104;11.702;2022-12-29T08:41:54;95315.34;;;3.79;71.93
62103;BME280;48077;48.104;11.702;2022-12-29T08:44:17;95323.31;;;3.86;71.52
62103;BME280;48077;48.104;11.702;2022-12-29T08:46:41;95314.59;;;3.85;71.79
62103;BME280;48077;48.104;11.702;2022-12-29T08:49:04;95322.38;;;4.00;71.61
62103;BME280;48077;48.104;11.702;2022-12-29T08:51:27;95318.34;;;4.11;70.10
62103;BME280;48077;48.104;11.702;2022-12-29T08:53:51;95312.50;;;4.22;70.73
62103;BME280;48077;48.104;11.702;2022-12-29T08:56:15;95315.16;;;4.29;69.60
62103;BME280;48077;48.104;11.702;2022-12-29T08:58:39;95320.50;;;4.49;69.17
62103;BME280;48077;48.104;11.702;2022-12-29T09:01:02;95321.56;;;4.61;67.72
62103;BME280;48077;48.104;11.702;2022-12-29T09:03:26;95317.31;;;4.67;67.08
62103;BME280;48077;48.104;11.702;2022-12-29T09:05:51;95319.97;;;4.80;66.53
62103;BME280;48077;48.104;11.702;2022-12-29T09:08:16;95319.59;;;4.83;66.64
62103;BME280;48077;48.104;11.702;2022-12-29T09:10:40;95322.25;;;4.97;65.92
62103;BME280;48077;48.104;11.702;2022-12-29T09:13:03;95313.09;;;4.99;65.75
62103;BME280;48077;48.104;11.702;2022-12-29T09:15:26;95319.22;;;5.06;65.61
62103;BME280;48077;48.104;11.702;2022-12-29T09:17:50;95319.41;;;5.05;66.26
62103;BME280;48077;48.104;11.702;2022-12-29T09:20:15;95322.06;;;5.12;66.18
62103;BME280;48077;48.104;11.702;2022-12-29T09:22:39;95323.06;;;5.17;65.90
62103;BME280;48077;48.104;11.702;2022-12-29T09:25:03;95320.22;;;5.25;65.13
62103;BME280;48077;48.104;11.702;2022-12-29T09:27:26;95324.69;;;5.38;64.69
62103;BME280;48077;48.104;11.702;2022-12-29T09:29:50;95317.56;;;5.39;64.45
62103;BME280;48077;48.104;11.702;2022-12-29T09:32:13;95328.75;;;5.47;63.68
62103;BME280;48077;48.104;11.702;2022-12-29T09:34:36;95334.06;;;5.54;63.09
62103;BME280;48077;48.104;11.702;2022-12-29T09:37:00;95325.72;;;5.51;63.18
62103;BME280;48077;48.104;11.702;2022-12-29T09:39:23;95337.69;;;5.60;63.30
62103;BME280;48077;48.104;11.702;2022-12-29T09:42:03;95336.28;;;5.57;64.07
62103;BME280;48077;48.104;11.702;2022-12-29T09:44:49;95331.59;;;5.59;64.24
62103;BME280;48077;48.104;11.702;2022-12-29T09:47:17;95327.72;;;5.68;63.55
62103;BME280;48077;48.104;11.702;2022-12-29T09:49:45;95329.53;;;5.81;62.98
62103;BME280;48077;48.104;11.702;2022-12-29T09:52:16;95322.97;;;6.04;63.57
62103;BME280;48077;48.104;11.702;2022-12-29T09:54:53;95307.84;;;6.24;62.59
62103;BME280;48077;48.104;11.702;2022-12-29T09:57:47;95297.78;;;6.46;62.81
62103;BME280;48077;48.104;11.702;2022-12-29T10:00:56;95299.34;;;6.61;60.77
62103;BME280;48077;48.104;11.702;2022-12-29T10:02:58;95299.88;;;6.69;60.77
62103;BME280;48077;48.104;11.702;2022-12-29T10:10:28;95293.88;;;6.87;59.83
62103;BME280;48077;48.104;11.702;2022-12-29T10:16:15;95288.13;;;6.91;62.03
62103;BME280;48077;48.104;11.702;2022-12-29T10:19:11;95274.22;;;6.95;60.78
62103;BME280;48077;48.104;11.702;2022-12-29T10:24:19;95268.13;;;6.95;60.29
62103;BME280;48077;48.104;11.702;2022-12-29T10:26:46;95271.16;;;6.98;60.87
62103;BME280;48077;48.104;11.702;2022-12-29T10:29:16;95278.03;;;7.06;61.93
62103;BME280;48077;48.104;11.702;2022-12-29T10:31:50;95278.19;;;7.11;62.54
62103;BME280;48077;48.104;11.702;2022-12-29T10:36:46;95292.22;;;7.18;62.97
62103;BME280;48077;48.104;11.702;2022-12-29T10:42:11;95283.91;;;7.33;60.31
62103;BME280;48077;48.104;11.702;2022-12-29T10:44:36;95287.72;;;7.44;59.03
62103;BME280;48077;48.104;11.702;2022-12-29T10:47:06;95283.91;;;7.58;56.97
62103;BME280;48077;48.104;11.702;2022-12-29T10:49:32;95284.59;;;7.72;55.45
62103;BME280;48077;48.104;11.702;2022-12-29T10:51:59;95260.00;;;7.83;54.79
62103;BME280;48077;48.104;11.702;2022-12-29T10:55:02;95255.03;;;8.05;54.17
62103;BME280;48077;48.104;11.702;2022-12-29T10:57:35;95249.19;;;8.15;53.33
62103;BME280;48077;48.104;11.702;2022-12-29T10:59:59;95240.91;;;8.23;52.80
62103;BME280;48077;48.104;11.702;2022-12-29T11:02:46;95245.63;;;8.40;52.60
62103;BME280;48077;48.104;11.702;2022-12-29T11:06:05;95225.09;;;8.47;52.22
62103;BME280;48077;48.104;11.702;2022-12-29T11:08:08;95236.84;;;8.69;50.67
62103;BME280;48077;48.104;11.702;2022-12-29T11:10:38;95229.88;;;8.99;49.14
62103;BME280;48077;48.104;11.702;2022-12-29T11:15:47;95232.44;;;9.41;48.21
62103;BME280;48077;48.104;11.702;2022-12-29T11:18:22;95225.75;;;9.50;47.35
62103;BME280;48077;48.104;11.702;2022-12-29T11:20:45;95230.81;;;9.63;47.05
62103;BME280;48077;48.104;11.702;2022-12-29T11:23:24;95226.16;;;9.82;47.29
62103;BME280;48077;48.104;11.702;2022-12-29T11:28:30;95218.28;;;10.28;45.18
62103;BME280;48077;48.104;11.702;2022-12-29T11:30:59;95211.47;;;10.32;44.47
62103;BME280;48077;48.104;11.702;2022-12-29T11:33:23;95214.94;;;10.32;44.66
62103;BME280;48077;48.104;11.702;2022-12-29T11:35:46;95204.53;;;10.19;44.58
62103;BME280;48077;48.104;11.702;2022-12-29T11:38:22;95211.31;;;10.27;45.31
62103;BME280;48077;48.104;11.702;2022-12-29T11:40:47;95209.59;;;10.32;45.54
62103;BME280;48077;48.104;11.702;2022-12-29T11:43:23;95214.56;;;10.41;45.90
62103;BME280;48077;48.104;11.702;2022-12-29T11:45:51;95199.50;;;10.63;44.99
62103;BME280;48077;48.104;11.702;2022-12-29T11:48:20;95205.03;;;10.90;45.22
62103;BME280;48077;48.104;11.702;2022-12-29T11:50:50;95205.38;;;10.94;44.66
62103;BME280;48077;48.104;11.702;2022-12-29T11:53:38;95205.94;;;11.13;43.68
62103;BME280;48077;48.104;11.702;2022-12-29T11:56:07;95203.16;;;11.25;41.67
62103;BME280;48077;48.104;11.702;2022-12-29T11:58:36;95202.69;;;11.28;42.37
62103;BME280;48077;48.104;11.702;2022-12-29T12:01:26;95194.75;;;11.16;42.49
62103;BME280;48077;48.104;11.702;2022-12-29T12:04:06;95200.38;;;11.14;42.23
62103;BME280;48077;48.104;11.702;2022-12-29T12:06:35;95199.63;;;11.02;41.29
62103;BME280;48077;48.104;11.702;2022-12-29T12:09:04;95179.81;;;10.81;41.69
62103;BME280;48077;48.104;11.702;2022-12-29T12:11:34;95197.94;;;10.79;41.60
62103;BME280;48077;48.104;11.702;2022-12-29T12:14:02;95201.59;;;10.61;41.56
62103;BME280;48077;48.104;11.702;2022-12-29T12:16:40;95203.50;;;10.49;41.59
62103;BME280;48077;48.104;11.702;2022-12-29T12:19:15;95201.59;;;10.32;42.05
62103;BME280;48077;48.104;11.702;2022-12-29T12:21:46;95187.63;;;10.13;43.17
62103;BME280;48077;48.104;11.702;2022-12-29T12:27:10;95184.09;;;9.96;43.44
62103;BME280;48077;48.104;11.702;2022-12-29T12:32:14;95187.59;;;9.85;44.35
62103;BME280;48077;48.104;11.702;2022-12-29T12:34:42;95172.19;;;9.87;42.98
62103;BME280;48077;48.104;11.702;2022-12-29T12:51:24;95157.88;;;9.64;45.36
62103;BME280;48077;48.104;11.702;2022-12-29T12:54:00;95173.75;;;9.71;45.48
62103;BME280;48077;48.104;11.702;2022-12-29T12:59:44;95172.09;;;9.70;46.16
62103;BME280;48077;48.104;11.702;2022-12-29T13:04:59;95174.31;;;9.61;47.20
62103;BME280;48077;48.104;11.702;2022-12-29T13:10:54;95175.47;;;9.53;47.12
62103;BME280;48077;48.104;11.702;2022-12-29T13:21:30;95167.28;;;9.43;47.46
62103;BME280;48077;48.104;11.702;2022-12-29T13:26:36;95164.53;;;9.38;48.48
62103;BME280;48077;48.104;11.702;2022-12-29T13:29:23;95161.50;;;9.35;48.74
62103;BME280;48077;48.104;11.702;2022-12-29T13:32:06;95153.66;;;9.28;48.36
62103;BME280;48077;48.104;11.702;2022-12-29T13:37:20;95145.66;;;9.16;49.67
62103;BME280;48077;48.104;11.702;2022-12-29T13:39:55;95160.03;;;9.15;49.20
62103;BME280;48077;48.104;11.702;2022-12-29T13:42:21;95152.97;;;9.09;49.70
62103;BME280;48077;48.104;11.702;2022-12-29T13:44:59;95157.94;;;9.05;50.32
62103;BME280;48077;48.104;11.702;2022-12-29T13:47:49;95153.16;;;8.96;50.46
62103;BME280;48077;48.104;11.702;2022-12-29T13:50:18;95150.19;;;8.92;49.91
62103;BME280;48077;48.104;11.702;2022-12-29T13:53:04;95147.72;;;8.79;50.80
62103;BME280;48077;48.104;11.702;2022-12-29T13:55:48;95152.34;;;8.71;51.11
62103;BME280;48077;48.104;11.702;2022-12-29T13:58:27;95164.84;;;8.71;51.17
62103;BME280;48077;48.104;11.702;2022-12-29T14:00:58;95179.16;;;8.70;51.51
62103;BME280;48077;48.104;11.702;2022-12-29T14:06:22;95183.78;;;8.63;51.15
62103;BME280;48077;48.104;11.702;2022-12-29T14:08:48;95164.13;;;8.52;51.20
62103;BME280;48077;48.104;11.702;2022-12-29T14:11:14;95172.09;;;8.52;51.97
62103;BME280;48077;48.104;11.702;2022-12-29T14:13:40;95168.56;;;8.40;52.84
62103;BME280;48077;48.104;11.702;2022-12-29T14:16:06;95180.66;;;8.36;53.15
62103;BME280;48077;48.104;11.702;2022-12-29T14:18:32;95175.09;;;8.25;53.59
62103;BME280;48077;48.104;11.702;2022-12-29T14:23:37;95175.03;;;8.14;53.58
62103;BME280;48077;48.104;11.702;2022-12-29T14:28:30;95162.38;;;7.97;55.38
62103;BME280;48077;48.104;11.702;2022-12-29T14:30:59;95172.41;;;7.95;56.00
62103;BME280;48077;48.104;11.702;2022-12-29T14:33:24;95168.88;;;7.83;57.04